Time;durP1;ratioP1;P1;durP2;ratioP2;P2;SDS_P1;SDS_P2;PMS_P1;PMS_P2;Temp;Humidity;BMP_temperature;BMP_pressure;BME280_temperature;BME280_humidity;BME280_pressure;Samples;Min_cycle;Max_cycle;Signal;HPM_P1;HPM_P2
2022/10/30 00:01:57;;;;;;;13.02;5.95;;;;;;;16.84;100.00;101587.66;5252682;28;20404;-78
2022/10/30 00:04:29;;;;;;;14.07;6.32;;;;;;;16.84;100.00;101585.00;5249457;28;20028;-78
2022/10/30 00:07:00;;;;;;;12.50;6.22;;;;;;;16.78;100.00;101590.91;5252725;28;20025;-78
2022/10/30 00:09:31;;;;;;;12.35;6.03;;;;;;;16.73;100.00;101586.06;5251694;28;20060;-78
2022/10/30 00:12:03;;;;;;;13.75;6.05;;;;;;;16.77;100.00;101590.06;5251085;28;20131;-78
2022/10/30 00:14:34;;;;;;;11.45;6.57;;;;;;;16.75;100.00;101593.88;5252040;28;20021;-78
2022/10/30 00:17:05;;;;;;;14.15;6.50;;;;;;;16.58;100.00;101576.97;5250478;28;20397;-78
2022/10/30 00:19:36;;;;;;;13.63;7.00;;;;;;;16.68;100.00;101595.44;5251527;28;20489;-78
2022/10/30 00:22:08;;;;;;;17.00;6.60;;;;;;;16.64;100.00;101597.53;5251024;28;20379;-78
2022/10/30 00:24:39;;;;;;;11.52;5.93;;;;;;;16.54;100.00;101587.03;5248872;28;20369;-78
2022/10/30 00:27:11;;;;;;;10.18;5.75;;;;;;;16.53;100.00;101582.72;5251925;28;20090;-78
2022/10/30 00:29:42;;;;;;;15.02;6.30;;;;;;;16.53;100.00;101593.31;5234217;28;20028;-78
2022/10/30 00:32:13;;;;;;;14.07;6.45;;;;;;;16.47;100.00;101590.44;5250041;28;20026;-78
2022/10/30 00:34:44;;;;;;;11.90;6.22;;;;;;;16.44;100.00;101586.28;5250647;28;20025;-77
2022/10/30 00:37:16;;;;;;;13.32;6.22;;;;;;;16.41;100.00;101588.41;5251238;28;20401;-78
2022/10/30 00:39:47;;;;;;;11.13;6.25;;;;;;;16.40;100.00;101586.72;5250720;28;20082;-78
2022/10/30 00:42:18;;;;;;;10.27;6.28;;;;;;;16.33;100.00;101581.22;5253058;28;20025;-78
2022/10/30 00:44:51;;;;;;;14.88;6.60;;;;;;;16.35;100.00;101581.06;5249637;28;20035;-79
2022/10/30 00:47:25;;;;;;;;;;;;;;;16.99;100.00;101577.34;5257989;28;20033;-77
2022/10/30 00:50:15;;;;;;;10.98;5.95;;;;;;;16.49;100.00;101581.38;5251915;28;20373;-78
2022/10/30 00:53:04;;;;;;;15.88;6.80;;;;;;;16.43;100.00;101583.78;5255273;28;20341;-78
2022/10/30 00:55:41;;;;;;;15.57;6.93;;;;;;;16.27;100.00;101572.06;5257043;28;20471;-78
2022/10/30 00:58:16;;;;;;;14.68;6.63;;;;;;;16.19;100.00;101577.25;5253893;28;20021;-78
2022/10/30 01:00:51;;;;;;;15.77;6.22;;;;;;;16.16;100.00;101582.84;5253189;28;20568;-77
2022/10/30 01:03:25;;;;;;;15.50;6.32;;;;;;;16.07;100.00;101583.75;5256517;28;20033;-78
2022/10/30 01:06:00;;;;;;;15.07;6.45;;;;;;;16.09;100.00;101575.66;5236609;28;20020;-77
2022/10/30 01:08:32;;;;;;;10.95;6.60;;;;;;;16.09;100.00;101580.94;5256798;28;20434;-78
2022/10/30 01:11:04;;;;;;;12.40;6.78;;;;;;;16.01;100.00;101581.66;5238459;28;20025;-78
2022/10/30 01:13:37;;;;;;;10.70;5.85;;;;;;;15.95;100.00;101574.34;5254364;28;20440;-78
2022/10/30 01:16:24;;;;;;;11.63;6.50;;;;;;;16.21;100.00;101580.59;5255089;28;20390;-78
2022/10/30 01:18:55;;;;;;;10.80;6.25;;;;;;;15.93;100.00;101592.97;5237697;28;20044;-78
2022/10/30 01:21:57;;;;;;;18.87;6.77;;;;;;;16.16;100.00;101588.13;5254631;28;20490;-77
2022/10/30 01:24:49;;;;;;;15.70;6.78;;;;;;;16.11;100.00;101595.69;5255163;28;20282;-78
2022/10/30 01:27:41;;;;;;;13.73;6.35;;;;;;;16.12;100.00;101583.28;5255992;28;20168;-78
2022/10/30 01:30:20;;;;;;;15.20;7.45;;;;;;;15.93;100.00;101589.50;5251540;28;20043;-78
2022/10/30 01:33:23;;;;;;;15.13;6.93;;;;;;;16.08;100.00;101588.03;5254839;28;20025;-77
2022/10/30 01:36:05;;;;;;;12.07;6.30;;;;;;;16.02;100.00;101592.13;5255756;28;20021;-77
2022/10/30 01:38:55;;;;;;;15.77;6.70;;;;;;;15.82;100.00;101601.94;5238517;28;20020;-78
2022/10/30 01:41:27;;;;;;;14.23;6.90;;;;;;;15.80;100.00;101598.63;5255902;28;20414;-78
2022/10/30 01:44:02;;;;;;;11.30;6.13;;;;;;;15.82;100.00;101590.53;5256362;28;20025;-78
2022/10/30 01:46:43;;;;;;;14.60;6.45;;;;;;;15.90;100.00;101593.25;5256827;28;20045;-78
2022/10/30 01:49:37;;;;;;;15.82;6.90;;;;;;;16.04;100.00;101602.53;5253386;28;20086;-78
2022/10/30 01:52:45;;;;;;;13.57;6.32;;;;;;;16.00;100.00;101598.53;5254760;28;20424;-78
2022/10/30 01:55:40;;;;;;;12.60;6.78;;;;;;;15.96;100.00;101605.91;5253888;28;20025;-78
2022/10/30 01:58:33;;;;;;;8.70;6.32;;;;;;;15.86;100.00;101599.00;5254186;28;20021;-77
2022/10/30 02:01:05;;;;;;;15.52;6.57;;;;;;;15.64;100.00;101601.00;5255437;28;20466;-78
2022/10/30 02:03:37;;;;;;;15.50;6.93;;;;;;;15.65;100.00;101604.50;5255420;28;20017;-78
2022/10/30 02:06:08;;;;;;;13.82;6.32;;;;;;;15.59;100.00;101605.88;5253751;28;20074;-78
2022/10/30 02:08:39;;;;;;;12.80;6.43;;;;;;;15.60;100.00;101614.63;5254710;28;20078;-78
2022/10/30 02:11:11;;;;;;;12.45;6.30;;;;;;;15.63;100.00;101614.34;5254092;28;20039;-78
2022/10/30 02:13:42;;;;;;;17.73;7.30;;;;;;;15.56;100.00;101607.00;5236541;28;20037;-78
2022/10/30 02:16:13;;;;;;;14.80;6.43;;;;;;;15.55;100.00;101613.25;5254280;28;20485;-78
2022/10/30 02:18:45;;;;;;;12.82;6.93;;;;;;;15.52;100.00;101597.69;5250772;28;20016;-78
2022/10/30 02:21:16;;;;;;;11.50;6.60;;;;;;;15.49;100.00;101595.38;5254815;28;20036;-78
2022/10/30 02:23:47;;;;;;;14.73;6.53;;;;;;;15.50;100.00;101609.41;5253552;28;20021;-78
2022/10/30 02:26:18;;;;;;;13.93;6.93;;;;;;;15.55;100.00;101615.91;5253364;28;20033;-78
2022/10/30 02:28:50;;;;;;;11.93;6.38;;;;;;;15.47;100.00;101609.69;5252690;28;20021;-78
2022/10/30 02:31:21;;;;;;;12.35;6.75;;;;;;;15.48;100.00;101614.81;5249259;28;20029;-78
2022/10/30 02:33:52;;;;;;;12.90;6.75;;;;;;;15.45;100.00;101615.09;5252129;28;20033;-77
2022/10/30 02:36:24;;;;;;;13.40;6.55;;;;;;;15.47;100.00;101614.97;5253155;28;20032;-78
2022/10/30 02:38:55;;;;;;;13.18;7.10;;;;;;;15.44;100.00;101613.44;5252543;28;20013;-78
2022/10/30 02:41:26;;;;;;;15.82;7.25;;;;;;;15.42;100.00;101625.97;5252089;28;20044;-77
2022/10/30 02:43:58;;;;;;;15.45;7.30;;;;;;;15.41;100.00;101624.28;5254525;28;20049;-77
2022/10/30 02:46:29;;;;;;;12.05;6.57;;;;;;;15.37;100.00;101617.63;5281570;23;20060;-72
2022/10/30 02:49:01;;;;;;;12.85;6.47;;;;;;;15.43;100.00;101618.88;5272050;28;20498;-72
2022/10/30 02:51:33;;;;;;;16.38;6.85;;;;;;;15.39;100.00;101620.13;5276271;28;20463;-72
2022/10/30 02:54:04;;;;;;;15.65;6.43;;;;;;;15.35;100.00;101618.75;5277232;28;20028;-74
2022/10/30 02:56:35;;;;;;;13.80;6.85;;;;;;;15.33;100.00;101619.69;5277583;28;20019;-72
2022/10/30 02:59:07;;;;;;;16.90;7.15;;;;;;;15.31;100.00;101619.03;5276914;28;20140;-72
2022/10/30 03:01:38;;;;;;;13.57;6.68;;;;;;;15.26;100.00;101615.13;5275485;28;20035;-73
2022/10/30 03:04:09;;;;;;;12.85;7.05;;;;;;;15.24;100.00;101607.38;5277384;28;20085;-73
2022/10/30 03:06:40;;;;;;;12.45;6.55;;;;;;;15.26;100.00;101621.25;5274046;28;20033;-72
2022/10/30 03:09:12;;;;;;;15.13;7.03;;;;;;;15.22;100.00;101614.59;5275739;28;20032;-72
2022/10/30 03:11:43;;;;;;;16.65;6.43;;;;;;;15.22;100.00;101605.84;5276438;28;20020;-74
2022/10/30 03:14:14;;;;;;;11.52;6.82;;;;;;;15.12;100.00;101602.41;5275145;28;20397;-72
2022/10/30 03:16:45;;;;;;;9.82;6.32;;;;;;;15.16;100.00;101607.25;5278006;28;20315;-72
2022/10/30 03:19:18;;;;;;;11.90;6.53;;;;;;;15.16;100.00;101604.59;5276457;28;20020;-73
2022/10/30 03:21:49;;;;;;;16.80;7.30;;;;;;;15.19;100.00;101596.41;5275320;28;20036;-73
2022/10/30 03:24:20;;;;;;;11.93;6.28;;;;;;;15.20;100.00;101600.72;5277410;28;20511;-75
2022/10/30 03:26:51;;;;;;;14.88;6.63;;;;;;;15.16;100.00;101612.53;5276642;28;20181;-72
2022/10/30 03:29:23;;;;;;;14.30;6.90;;;;;;;15.15;100.00;101605.56;5274735;28;20025;-74
2022/10/30 03:31:54;;;;;;;12.77;6.45;;;;;;;15.17;100.00;101602.78;5275990;28;20024;-71
2022/10/30 03:34:26;;;;;;;11.18;6.47;;;;;;;15.14;100.00;101598.63;5276469;28;20016;-72
2022/10/30 03:36:57;;;;;;;14.25;6.93;;;;;;;15.16;100.00;101601.97;5276199;28;20027;-73
2022/10/30 03:39:28;;;;;;;12.95;6.32;;;;;;;15.19;100.00;101609.59;5277163;28;20469;-74
2022/10/30 03:42:00;;;;;;;15.10;6.78;;;;;;;15.15;100.00;101610.00;5274735;28;20449;-73
2022/10/30 03:44:31;;;;;;;12.57;7.00;;;;;;;15.17;100.00;101603.63;5276337;28;20519;-71
2022/10/30 03:47:02;;;;;;;12.40;6.88;;;;;;;15.19;100.00;101617.53;5276479;28;20443;-72
2022/10/30 03:49:33;;;;;;;13.30;7.00;;;;;;;15.13;100.00;101623.38;5276273;28;20473;-71
2022/10/30 03:52:05;;;;;;;12.63;6.65;;;;;;;15.15;100.00;101620.56;5276836;28;20112;-73
2022/10/30 03:54:36;;;;;;;9.75;6.03;;;;;;;15.13;100.00;101610.16;5275883;28;20033;-72
2022/10/30 03:57:07;;;;;;;11.20;6.28;;;;;;;15.11;100.00;101612.09;5274517;28;20028;-74
2022/10/30 03:59:38;;;;;;;13.65;6.60;;;;;;;15.09;100.00;101625.44;5274904;28;20028;-72
2022/10/30 04:02:10;;;;;;;11.85;6.30;;;;;;;15.03;100.00;101618.06;5274751;28;20067;-74
2022/10/30 04:04:41;;;;;;;12.90;6.70;;;;;;;15.06;100.00;101616.97;5275487;28;20027;-72
2022/10/30 04:07:12;;;;;;;14.57;7.07;;;;;;;15.03;100.00;101623.34;5277116;28;20028;-73
2022/10/30 04:09:44;;;;;;;13.05;6.50;;;;;;;15.00;100.00;101622.81;5276651;28;20005;-73
2022/10/30 04:12:15;;;;;;;14.45;7.10;;;;;;;14.95;100.00;101632.94;5274942;28;20039;-72
2022/10/30 04:14:46;;;;;;;12.00;6.10;;;;;;;14.92;100.00;101628.78;5276097;28;20022;-73
2022/10/30 04:17:17;;;;;;;8.73;6.60;;;;;;;14.89;100.00;101618.53;5276304;28;20024;-72
2022/10/30 04:19:49;;;;;;;13.02;6.53;;;;;;;14.79;100.00;101621.16;5275859;28;20020;-71
2022/10/30 04:22:20;;;;;;;16.30;6.68;;;;;;;14.83;100.00;101616.44;5280029;28;20471;-71
2022/10/30 04:24:52;;;;;;;13.40;6.63;;;;;;;14.82;100.00;101618.25;5280362;28;20021;-72
2022/10/30 04:27:23;;;;;;;12.10;6.75;;;;;;;14.79;100.00;101617.69;5278895;28;20032;-72
2022/10/30 04:29:54;;;;;;;12.98;8.05;;;;;;;14.81;100.00;101618.34;5279372;28;20032;-72
2022/10/30 04:32:26;;;;;;;15.80;7.10;;;;;;;14.81;100.00;101621.84;5279264;28;20024;-72
2022/10/30 04:34:57;;;;;;;15.15;7.70;;;;;;;14.86;100.00;101628.53;5280726;28;20024;-72
2022/10/30 04:37:29;;;;;;;16.33;6.30;;;;;;;14.81;100.00;101619.22;5278987;28;20034;-72
2022/10/30 04:40:00;;;;;;;9.43;6.60;;;;;;;14.77;100.00;101603.78;5278783;28;20141;-72
2022/10/30 04:42:31;;;;;;;14.07;7.45;;;;;;;14.77;100.00;101603.78;5279510;28;20101;-71
2022/10/30 04:45:03;;;;;;;13.07;6.75;;;;;;;14.73;100.00;101603.22;5278722;28;20039;-72
2022/10/30 04:47:34;;;;;;;10.75;6.60;;;;;;;14.75;100.00;101592.56;5279119;28;20669;-72
2022/10/30 04:50:06;;;;;;;13.30;7.25;;;;;;;14.80;100.00;101590.31;5278530;28;20028;-71
2022/10/30 04:52:37;;;;;;;15.48;7.55;;;;;;;14.75;100.00;101577.56;5280081;28;20449;-72
2022/10/30 04:55:10;;;;;;;12.20;7.05;;;;;;;14.78;100.00;101584.38;5279341;28;20126;-72
2022/10/30 04:57:41;;;;;;;13.27;7.10;;;;;;;14.80;100.00;101583.25;5276663;28;20074;-72
2022/10/30 05:00:13;;;;;;;15.35;6.95;;;;;;;14.79;100.00;101593.94;5277965;28;20025;-74
2022/10/30 05:02:44;;;;;;;12.02;6.80;;;;;;;14.80;100.00;101595.59;5280377;28;20385;-71
2022/10/30 05:05:15;;;;;;;13.40;6.93;;;;;;;14.82;100.00;101589.22;5277774;28;20513;-72
2022/10/30 05:07:47;;;;;;;15.07;6.93;;;;;;;14.80;100.00;101590.31;5279698;28;20032;-72
2022/10/30 05:10:18;;;;;;;11.20;6.63;;;;;;;14.78;100.00;101594.94;5277952;28;20062;-72
2022/10/30 05:12:52;;;;;;;12.85;6.47;;;;;;;14.82;100.00;101591.84;5277496;28;20028;-72
2022/10/30 05:15:23;;;;;;;11.38;7.30;;;;;;;14.77;100.00;101586.19;5277934;28;20086;-73
2022/10/30 05:17:54;;;;;;;14.73;7.47;;;;;;;14.77;100.00;101588.81;5279248;28;20036;-71
2022/10/30 05:20:26;;;;;;;16.52;7.25;;;;;;;14.70;100.00;101592.97;5260645;28;20047;-72
2022/10/30 05:22:58;;;;;;;13.40;7.05;;;;;;;14.72;100.00;101591.03;5278441;28;20036;-71
2022/10/30 05:25:30;;;;;;;13.65;7.00;;;;;;;14.71;100.00;101589.38;5279269;28;20032;-72
2022/10/30 05:28:03;;;;;;;17.63;6.78;;;;;;;14.71;100.00;101594.63;5279163;28;20409;-72
2022/10/30 05:30:35;;;;;;;13.50;6.82;;;;;;;14.59;100.00;101595.75;5277511;28;20067;-71
2022/10/30 05:33:08;;;;;;;16.40;7.05;;;;;;;14.63;100.00;101601.59;5278221;28;20051;-73
2022/10/30 05:35:40;;;;;;;10.98;7.05;;;;;;;14.54;100.00;101608.50;5277618;28;20020;-73
2022/10/30 05:38:11;;;;;;;12.95;6.50;;;;;;;14.46;100.00;101603.03;5278518;28;20431;-71
2022/10/30 05:40:45;;;;;;;11.35;6.90;;;;;;;14.39;100.00;101600.13;5278894;28;20028;-71
2022/10/30 05:43:16;;;;;;;12.30;7.18;;;;;;;14.29;100.00;101602.75;5278872;28;20032;-71
2022/10/30 05:45:48;;;;;;;12.10;6.93;;;;;;;14.22;100.00;101606.91;5277858;28;20127;-75
2022/10/30 05:48:20;;;;;;;14.55;6.70;;;;;;;14.19;100.00;101601.88;5277735;28;20028;-71
2022/10/30 05:50:51;;;;;;;11.13;6.88;;;;;;;14.12;100.00;101604.22;5277557;28;20055;-71
2022/10/30 05:53:22;;;;;;;12.60;5.97;;;;;;;14.08;100.00;101596.72;5275410;28;20054;-71
2022/10/30 05:55:58;;;;;;;12.70;6.78;;;;;;;14.12;100.00;101598.13;5279049;28;20495;-75
2022/10/30 05:58:29;;;;;;;11.10;6.15;;;;;;;13.97;100.00;101599.47;5278030;28;20025;-71
2022/10/30 06:01:05;;;;;;;13.45;7.70;;;;;;;13.99;100.00;101592.28;5277480;28;20040;-71
2022/10/30 06:03:36;;;;;;;14.45;6.57;;;;;;;13.93;100.00;101598.06;5278351;28;20100;-71
2022/10/30 06:06:07;;;;;;;11.82;7.00;;;;;;;13.88;100.00;101604.56;5277986;28;20020;-73
2022/10/30 06:08:39;;;;;;;11.80;6.30;;;;;;;13.77;100.00;101594.13;5276591;28;20025;-71
2022/10/30 06:11:10;;;;;;;11.93;6.45;;;;;;;13.74;100.00;101602.28;5277640;28;20051;-73
2022/10/30 06:13:41;;;;;;;13.68;6.47;;;;;;;13.70;100.00;101597.41;5276535;28;20037;-71
2022/10/30 06:16:12;;;;;;;10.00;6.65;;;;;;;13.65;100.00;101600.47;5277615;28;20070;-74
2022/10/30 06:18:44;;;;;;;10.63;7.03;;;;;;;13.59;100.00;101590.44;5278403;28;20015;-72
2022/10/30 06:21:15;;;;;;;11.15;6.68;;;;;;;13.55;100.00;101592.50;5277953;28;20048;-71
2022/10/30 06:23:47;;;;;;;11.55;7.45;;;;;;;13.50;100.00;101585.97;5276175;28;20038;-72
2022/10/30 06:26:18;;;;;;;13.02;6.78;;;;;;;13.54;100.00;101585.56;5278401;28;20024;-71
2022/10/30 06:28:49;;;;;;;15.10;8.25;;;;;;;13.54;100.00;101595.28;5276986;28;20466;-73
2022/10/30 06:31:21;;;;;;;12.77;7.40;;;;;;;13.57;100.00;101581.84;5273236;28;21231;-71
2022/10/30 06:33:52;;;;;;;12.15;6.60;;;;;;;13.54;100.00;101584.75;5275601;28;20060;-71
2022/10/30 06:36:23;;;;;;;11.70;6.22;;;;;;;13.52;100.00;101584.03;5275619;28;20025;-71
2022/10/30 06:38:55;;;;;;;13.60;7.40;;;;;;;13.50;100.00;101597.34;5274303;28;20025;-73
2022/10/30 06:41:26;;;;;;;12.63;7.10;;;;;;;13.44;100.00;101592.56;5276658;28;20342;-73
2022/10/30 06:43:58;;;;;;;16.20;6.50;;;;;;;13.41;100.00;101594.63;5276501;28;20031;-72
2022/10/30 06:46:29;;;;;;;13.68;6.50;;;;;;;13.39;100.00;101594.78;5274485;28;20045;-72
2022/10/30 06:49:00;;;;;;;13.70;7.05;;;;;;;13.40;100.00;101596.44;5273512;28;20063;-72
2022/10/30 06:51:35;;;;;;;13.07;6.72;;;;;;;13.48;100.00;101596.63;5274749;28;20389;-71
2022/10/30 06:54:06;;;;;;;10.80;6.88;;;;;;;13.44;100.00;101594.38;5275202;28;20025;-72
2022/10/30 06:56:37;;;;;;;14.50;6.75;;;;;;;13.43;100.00;101585.66;5272723;28;20428;-71
2022/10/30 06:59:09;;;;;;;17.23;7.65;;;;;;;13.41;100.00;101576.22;5274209;28;20496;-71
2022/10/30 07:01:40;;;;;;;11.00;6.97;;;;;;;13.42;100.00;101573.47;5272433;28;20487;-71
2022/10/30 07:04:12;;;;;;;14.93;7.28;;;;;;;13.46;100.00;101560.88;5275044;28;20081;-72
2022/10/30 07:06:43;;;;;;;14.07;7.25;;;;;;;13.47;100.00;101565.16;5273178;28;20028;-72
2022/10/30 07:09:14;;;;;;;9.98;6.20;;;;;;;13.48;100.00;101569.47;5276127;28;20066;-71
2022/10/30 07:11:46;;;;;;;11.15;7.80;;;;;;;13.50;100.00;101570.19;5273210;28;20499;-70
2022/10/30 07:14:17;;;;;;;15.45;6.70;;;;;;;13.52;100.00;101568.22;5276334;28;20496;-72
2022/10/30 07:16:48;;;;;;;16.77;7.55;;;;;;;13.56;100.00;101574.91;5274768;28;20024;-72
2022/10/30 07:19:20;;;;;;;13.77;8.38;;;;;;;13.55;100.00;101571.44;5274703;28;20025;-71
2022/10/30 07:21:51;;;;;;;10.85;6.28;;;;;;;13.55;100.00;101581.97;5273828;28;20055;-71
2022/10/30 07:24:22;;;;;;;12.60;6.63;;;;;;;13.56;100.00;101572.25;5275492;28;20390;-72
2022/10/30 07:26:54;;;;;;;15.07;7.47;;;;;;;13.64;100.00;101580.38;5275466;28;20012;-71
2022/10/30 07:29:26;;;;;;;11.02;6.80;;;;;;;13.63;100.00;101576.88;5273506;28;20029;-74
2022/10/30 07:31:57;;;;;;;15.70;7.15;;;;;;;13.68;100.00;101570.41;5274731;28;20032;-71
2022/10/30 07:34:29;;;;;;;11.10;6.78;;;;;;;13.72;100.00;101585.81;5275381;28;20020;-73
2022/10/30 07:37:00;;;;;;;17.00;7.32;;;;;;;13.73;100.00;101582.19;5275576;28;20024;-71
2022/10/30 07:39:31;;;;;;;10.90;7.10;;;;;;;13.77;100.00;101593.28;5273393;28;20481;-71
2022/10/30 07:42:02;;;;;;;14.95;7.00;;;;;;;13.77;100.00;101588.84;5272761;28;20410;-71
2022/10/30 07:44:34;;;;;;;14.65;6.88;;;;;;;13.82;100.00;101583.19;5274396;28;20503;-71
2022/10/30 07:47:05;;;;;;;12.38;7.50;;;;;;;13.87;100.00;101579.19;5237718;28;1043003;-70
2022/10/30 07:49:36;;;;;;;12.80;7.80;;;;;;;13.88;100.00;101572.97;5273983;28;20482;-72
2022/10/30 07:52:07;;;;;;;11.07;7.18;;;;;;;13.93;100.00;101577.81;5272308;28;20477;-71
2022/10/30 07:54:39;;;;;;;12.73;7.70;;;;;;;13.97;100.00;101584.47;5273178;28;20043;-70
2022/10/30 07:57:10;;;;;;;9.85;6.70;;;;;;;14.07;100.00;101585.34;5272745;28;20025;-74
2022/10/30 07:59:41;;;;;;;13.40;7.30;;;;;;;14.07;100.00;101589.78;5274334;28;20504;-71
2022/10/30 08:02:13;;;;;;;15.88;7.72;;;;;;;14.18;100.00;101583.59;5274972;28;20082;-71
2022/10/30 08:04:44;;;;;;;11.73;7.53;;;;;;;14.25;100.00;101580.28;5274900;28;20020;-74
2022/10/30 08:07:15;;;;;;;17.80;7.75;;;;;;;14.30;100.00;101583.31;5274460;28;20035;-71
2022/10/30 08:09:46;;;;;;;15.95;7.80;;;;;;;14.42;100.00;101572.66;5274077;28;20066;-71
2022/10/30 08:12:18;;;;;;;16.25;7.82;;;;;;;14.49;100.00;101569.34;5273079;28;20105;-71
2022/10/30 08:14:49;;;;;;;13.45;6.80;;;;;;;14.57;100.00;101573.94;5274439;28;20123;-71
2022/10/30 08:17:21;;;;;;;13.75;6.88;;;;;;;14.64;100.00;101566.31;5275459;28;20044;-72
2022/10/30 08:19:52;;;;;;;11.32;7.18;;;;;;;14.77;100.00;101557.16;5273837;28;20589;-73
2022/10/30 08:22:23;;;;;;;15.48;7.68;;;;;;;14.79;100.00;101559.66;5275030;28;20515;-72
2022/10/30 08:24:55;;;;;;;11.55;7.10;;;;;;;14.84;100.00;101578.53;5274787;28;20058;-72
2022/10/30 08:27:26;;;;;;;13.77;8.07;;;;;;;14.94;100.00;101578.53;5274995;28;20705;-71
2022/10/30 08:29:57;;;;;;;14.55;7.05;;;;;;;14.93;100.00;101590.88;5269023;28;20023;-71
2022/10/30 08:32:28;;;;;;;12.50;7.40;;;;;;;14.97;100.00;101589.63;5268995;28;20040;-72
2022/10/30 08:35:00;;;;;;;13.73;7.50;;;;;;;15.05;100.00;101587.13;5265324;28;20680;-72
2022/10/30 08:37:31;;;;;;;13.68;7.20;;;;;;;15.14;100.00;101582.78;5274025;28;20485;-71
2022/10/30 08:40:03;;;;;;;13.18;7.00;;;;;;;15.12;100.00;101566.28;5274523;28;20481;-70
2022/10/30 08:42:34;;;;;;;16.17;6.88;;;;;;;15.39;100.00;101577.88;5272957;28;20028;-71
2022/10/30 08:45:06;;;;;;;11.63;6.97;;;;;;;15.44;100.00;101583.56;5264808;28;20032;-72
2022/10/30 08:47:37;;;;;;;10.60;6.78;;;;;;;15.46;100.00;101589.53;5272039;23;20612;-76
2022/10/30 08:50:08;;;;;;;15.68;7.28;;;;;;;15.47;100.00;101584.09;5251840;28;20021;-77
2022/10/30 08:52:40;;;;;;;12.63;7.15;;;;;;;15.50;100.00;101588.28;5252897;28;20485;-76
2022/10/30 08:55:11;;;;;;;13.93;6.93;;;;;;;15.57;100.00;101582.28;5253757;28;20182;-77
2022/10/30 08:57:42;;;;;;;12.80;7.07;;;;;;;15.77;100.00;101584.88;5254286;28;20374;-77
2022/10/30 09:00:14;;;;;;;13.27;6.65;;;;;;;15.76;100.00;101586.69;5253026;28;20116;-77
2022/10/30 09:02:45;;;;;;;12.02;6.43;;;;;;;15.77;100.00;101571.66;5253037;28;20078;-76
2022/10/30 09:05:16;;;;;;;11.88;6.95;;;;;;;15.84;100.00;101578.03;5252134;28;20025;-76
2022/10/30 09:07:47;;;;;;;15.93;6.68;;;;;;;15.97;100.00;101575.03;5250191;28;20675;-76
2022/10/30 09:10:19;;;;;;;16.42;6.95;;;;;;;16.14;100.00;101571.59;5251516;28;20497;-77
2022/10/30 09:12:55;;;;;;;16.73;6.82;;;;;;;16.37;100.00;101564.06;5254562;28;20036;-77
2022/10/30 09:15:26;;;;;;;13.82;6.65;;;;;;;16.47;100.00;101556.03;5251806;28;20058;-76
2022/10/30 09:18:00;;;;;;;13.32;6.40;;;;;;;16.66;100.00;101555.88;5258851;28;20557;-76
2022/10/30 09:20:31;;;;;;;18.35;7.10;;;;;;;16.74;100.00;101557.78;5254397;28;20493;-77
2022/10/30 09:23:03;;;;;;;14.88;6.82;;;;;;;16.82;100.00;101549.09;5257876;28;20079;-77
2022/10/30 09:25:34;;;;;;;14.45;6.38;;;;;;;16.89;100.00;101552.78;5255202;28;20036;-78
2022/10/30 09:28:05;;;;;;;15.20;6.38;;;;;;;17.01;100.00;101555.03;5254841;28;20036;-77
2022/10/30 09:30:37;;;;;;;11.93;6.13;;;;;;;17.11;100.00;101560.22;5253529;28;20048;-77
2022/10/30 09:33:08;;;;;;;13.40;5.70;;;;;;;17.36;100.00;101558.56;5256654;28;20393;-77
2022/10/30 09:35:39;;;;;;;13.35;5.60;;;;;;;17.42;100.00;101555.28;5254771;28;20029;-77
2022/10/30 09:38:11;;;;;;;10.40;5.45;;;;;;;17.43;100.00;101561.44;5253296;28;20363;-77
2022/10/30 09:41:00;;;;;;;16.97;6.10;;;;;;;17.74;100.00;101559.09;5253592;28;20033;-77
2022/10/30 09:43:49;;;;;;;9.23;6.13;;;;;;;17.87;100.00;101574.56;5253535;28;20086;-77
2022/10/30 09:46:47;;;;;;;12.90;5.85;;;;;;;17.96;100.00;101573.63;5252067;28;20044;-77
2022/10/30 09:49:27;;;;;;;12.00;5.50;;;;;;;17.87;100.00;101586.00;5254272;28;20108;-77
2022/10/30 09:52:07;;;;;;;14.77;6.70;;;;;;;17.98;100.00;101592.81;5254817;28;20039;-77
2022/10/30 09:55:07;;;;;;;12.98;6.57;;;;;;;18.02;100.00;101593.34;5255246;28;20244;-79
2022/10/30 09:57:44;;;;;;;13.30;6.32;;;;;;;18.09;100.00;101604.97;5254377;28;20401;-76
2022/10/30 10:00:21;;;;;;;13.98;5.97;;;;;;;18.00;100.00;101596.16;5255508;28;20545;-77
2022/10/30 10:03:10;;;;;;;10.30;5.55;;;;;;;18.14;100.00;101598.19;5255664;28;20576;-77
2022/10/30 10:05:50;;;;;;;14.20;5.60;;;;;;;18.17;100.00;101599.69;5255230;28;20021;-77
2022/10/30 10:08:31;;;;;;;15.00;5.65;;;;;;;18.24;100.00;101590.91;5256281;28;20394;-77
2022/10/30 10:11:11;;;;;;;11.90;5.50;;;;;;;18.28;100.00;101578.16;5255210;28;20021;-77
2022/10/30 10:13:57;;;;;;;13.55;9.75;;;;;;;18.55;100.00;101578.88;5254861;28;20475;-76
2022/10/30 10:16:35;;;;;;;12.77;6.70;;;;;;;18.46;100.00;101581.53;5250735;28;20648;-76
2022/10/30 10:19:15;;;;;;;11.50;5.88;;;;;;;18.47;100.00;101587.66;5255392;28;20087;-78
2022/10/30 10:21:58;;;;;;;13.05;6.07;;;;;;;18.69;100.00;101576.41;5255565;28;20072;-77
2022/10/30 10:24:37;;;;;;;13.18;5.82;;;;;;;18.73;100.00;101586.72;5253146;28;20409;-77
2022/10/30 10:27:31;;;;;;;14.13;6.18;;;;;;;18.99;100.00;101574.09;5255526;28;20044;-77
2022/10/30 10:30:06;;;;;;;11.93;5.40;;;;;;;18.86;100.00;101576.41;5253913;28;20390;-77
2022/10/30 10:32:59;;;;;;;14.88;5.95;;;;;;;19.04;100.00;101566.44;5255660;28;20033;-77
2022/10/30 10:35:45;;;;;;;;;;;;;;;19.56;100.00;101573.16;5253423;28;20406;-78
2022/10/30 10:38:47;;;;;;;10.88;5.30;;;;;;;19.28;100.00;101565.59;5255898;28;19928;-78
2022/10/30 10:41:39;;;;;;;14.50;5.90;;;;;;;19.33;100.00;101567.75;5251760;28;20043;-77
2022/10/30 10:44:45;;;;;;;13.23;5.63;;;;;;;19.38;100.00;101565.38;5254959;28;20024;-77
2022/10/30 10:47:53;;;;;;;12.82;5.30;;;;;;;19.45;100.00;101569.84;5253204;28;20048;-77
2022/10/30 10:50:32;;;;;;;17.08;5.82;;;;;;;19.41;100.00;101568.53;5253735;28;20040;-77
2022/10/30 10:53:11;;;;;;;11.90;5.40;;;;;;;19.54;100.00;101573.31;5256637;28;20051;-77
2022/10/30 10:55:48;;;;;;;15.60;6.65;;;;;;;19.54;100.00;101572.47;5255906;28;20059;-77
2022/10/30 10:58:32;;;;;;;12.88;6.13;;;;;;;19.66;100.00;101576.44;5254235;28;20086;-77
2022/10/30 11:01:08;;;;;;;14.50;5.18;;;;;;;19.62;100.00;101577.78;5252326;28;20114;-79
2022/10/30 11:03:58;;;;;;;12.20;5.53;;;;;;;19.84;100.00;101563.75;5255092;28;20083;-78
2022/10/30 11:06:42;;;;;;;13.77;6.28;;;;;;;19.92;100.00;101562.88;5254816;28;20025;-76
2022/10/30 11:09:15;;;;;;;13.00;5.47;;;;;;;19.82;100.00;101555.13;5254807;28;20055;-77
2022/10/30 11:11:48;;;;;;;10.48;5.75;;;;;;;19.89;100.00;101561.41;5255173;28;20037;-77
2022/10/30 11:14:28;;;;;;;13.55;6.32;;;;;;;20.10;100.00;101560.78;5253556;28;20447;-77
2022/10/30 11:17:21;;;;;;;10.25;6.03;;;;;;;20.29;100.00;101554.19;5252781;28;20028;-77
2022/10/30 11:20:01;;;;;;;7.47;5.05;;;;;;;20.29;100.00;101550.69;5253750;28;20028;-78
2022/10/30 11:22:38;;;;;;;12.65;5.43;;;;;;;20.28;100.00;101547.22;5256719;28;20040;-77
2022/10/30 11:25:17;;;;;;;12.98;5.80;;;;;;;20.40;100.00;101547.63;5255149;28;20393;-77
2022/10/30 11:27:55;;;;;;;12.95;5.10;;;;;;;20.42;100.00;101550.97;5254133;28;20717;-77
2022/10/30 11:30:27;;;;;;;11.32;5.10;;;;;;;20.29;100.00;101548.03;5253953;28;20492;-77
2022/10/30 11:33:20;;;;;;;13.43;5.05;;;;;;;20.61;100.00;101557.66;5253536;28;20082;-77
2022/10/30 11:35:51;;;;;;;16.67;5.10;;;;;;;20.35;100.00;101552.66;5252265;28;20021;-77
2022/10/30 11:38:25;;;;;;;13.90;5.40;;;;;;;20.57;100.00;101559.00;5254477;28;20083;-78
2022/10/30 11:40:57;;;;;;;13.75;5.45;;;;;;;20.49;100.00;101561.69;5254562;28;20091;-78
2022/10/30 11:43:28;;;;;;;14.15;4.90;;;;;;;20.61;100.00;101555.00;5254573;28;20458;-77